»·PEaware :: N269WW KSMX-KBFL

N269WW :: KSMX-KBFL

FLIGHT INFORMATION

Flight Status: Arrived
Operator: Privately registered:
United States
More flights under this callsign
Pilot: Keenan B. (28722)
Aircraft: CSA SportCruiser
(CRUZ)
More flights by this aircraft type
Origin: KSMX Santa Maria Pub/Capt Hancock
United States
Destination: KBFL Meadows
United States
More flights between these airports :: More routes between these airports
Route: +WYNNR L62
File this flight plan on PilotEdge
Remarks:
Altitude:
(Current/Filed)
5,500ft
Speed:
(Current/Filed)
90kts
Departed: 11-Apr-20 09:21 AM
Arrived: 11-Apr-20 10:13 AM
Distance/Time
Traveled:
76nm/0:51
Distance/Time
To Go:
Arrived

Flight Plot

Page will automatically refresh every two minutes.

Flight plan parsing failed; only flown route is shown


Map Options




Map Legend


Flown Route
Filed Route
Departure Airport
Arrival Airport
Navaid (VOR, NDB)
Fix

Horizontal Profiles

Position Reports

Time Latitude Longitude Heading Altitude Ground
Speed
11-Apr-20 09:08 34.896952 -120.446160 273 264ft 0kts
11-Apr-20 09:09 34.896952 -120.446160 273 264ft 0kts
11-Apr-20 09:10 34.896952 -120.446160 273 264ft 0kts
11-Apr-20 09:11 34.896952 -120.446160 273 264ft 0kts
11-Apr-20 09:12 34.896952 -120.446160 273 264ft 0kts
11-Apr-20 09:13 34.896952 -120.446160 273 264ft 0kts
11-Apr-20 09:14 34.896952 -120.446160 273 264ft 0kts
11-Apr-20 09:15 34.896989 -120.447069 257 264ft 11kts
11-Apr-20 09:16 34.894412 -120.445322 140 264ft 14kts
11-Apr-20 09:17 34.893394 -120.445201 186 264ft 0kts
11-Apr-20 09:18 34.893394 -120.445201 186 264ft 0kts
11-Apr-20 09:19 34.893071 -120.445331 220 264ft 16kts
11-Apr-20 09:20 34.903969 -120.459256 317 925ft 77kts
11-Apr-20 09:21 34.920948 -120.451750 42 2110ft 85kts
11-Apr-20 09:22 34.936584 -120.431119 30 3261ft 79kts
11-Apr-20 09:23 34.954198 -120.414233 34 4310ft 81kts
11-Apr-20 09:24 34.970226 -120.394943 38 5313ft 83kts
11-Apr-20 09:25 34.988792 -120.378168 27 5824ft 89kts
11-Apr-20 09:26 35.009551 -120.362804 22 5821ft 78kts
11-Apr-20 09:27 35.027340 -120.347993 24 5324ft 79kts
11-Apr-20 09:28 35.044549 -120.331629 37 5715ft 79kts
11-Apr-20 09:29 35.057620 -120.310559 50 5752ft 82kts
11-Apr-20 09:30 35.072543 -120.284798 46 5695ft 102kts
11-Apr-20 09:31 35.093535 -120.261056 38 5635ft 103kts
11-Apr-20 09:32 35.112425 -120.234602 48 5629ft 103kts
11-Apr-20 09:33 35.125236 -120.202289 63 5565ft 111kts
11-Apr-20 09:34 35.134967 -120.167417 62 5566ft 107kts
11-Apr-20 09:35 35.146917 -120.134800 59 5603ft 103kts
11-Apr-20 09:36 35.156206 -120.100804 69 5596ft 107kts
11-Apr-20 09:37 35.164788 -120.066180 60 5563ft 108kts
11-Apr-20 09:38 35.177715 -120.034262 55 5573ft 106kts
11-Apr-20 09:39 35.190874 -120.002685 60 5584ft 106kts
11-Apr-20 09:40 35.200788 -119.968429 60 5597ft 104kts
11-Apr-20 09:41 35.210374 -119.935025 77 5621ft 106kts
11-Apr-20 09:42 35.222945 -119.904261 55 5646ft 101kts
11-Apr-20 09:43 35.231476 -119.870416 82 5648ft 104kts
11-Apr-20 09:44 35.239350 -119.837134 66 5598ft 102kts
11-Apr-20 09:45 35.246911 -119.804035 73 5501ft 101kts
11-Apr-20 09:46 35.251317 -119.769632 84 5562ft 111kts
11-Apr-20 09:47 35.259229 -119.736993 62 5780ft 100kts
11-Apr-20 09:48 35.273519 -119.708230 47 5593ft 99kts
11-Apr-20 09:49 35.290198 -119.681549 54 5407ft 97kts
11-Apr-20 09:50 35.305651 -119.654292 61 5348ft 98kts
11-Apr-20 09:51 35.317561 -119.624369 65 5545ft 100kts
11-Apr-20 09:52 35.327110 -119.591627 69 5645ft 106kts
11-Apr-20 09:53 35.340660 -119.559769 54 5646ft 103kts
11-Apr-20 09:54 35.353069 -119.527810 67 5623ft 106kts
11-Apr-20 09:55 35.365161 -119.494888 61 5632ft 101kts
11-Apr-20 09:56 35.376266 -119.462369 70 5638ft 105kts
11-Apr-20 09:57 35.380252 -119.427232 64 5496ft 106kts
11-Apr-20 09:58 35.391664 -119.394748 65 5362ft 103kts
11-Apr-20 09:59 35.400148 -119.361880 78 5387ft 98kts
11-Apr-20 10:00 35.402101 -119.327699 81 5546ft 100kts
11-Apr-20 10:01 35.413810 -119.297229 67 5492ft 95kts
11-Apr-20 10:02 35.420728 -119.266129 80 4474ft 96kts
11-Apr-20 10:03 35.424353 -119.236622 85 3687ft 82kts
11-Apr-20 10:04 35.423755 -119.208525 80 3106ft 83kts
11-Apr-20 10:05 35.429646 -119.181085 75 2653ft 85kts
11-Apr-20 10:06 35.431605 -119.153170 101 1995ft 85kts
11-Apr-20 10:07 35.432030 -119.124212 83 1522ft 86kts
11-Apr-20 10:08 35.432644 -119.092510 94 1524ft 97kts
11-Apr-20 10:09 35.420379 -119.067960 145 1626ft 85kts
11-Apr-20 10:10 35.414245 -119.048816 61 1321ft 56kts
11-Apr-20 10:12 35.426130 -119.046805 313 768ft 63kts
11-Apr-20 10:13 35.436245 -119.058284 51 491ft 1kts
11-Apr-20 10:14 35.434105 -119.054194 137 492ft 23kts
11-Apr-20 10:15 35.429633 -119.048793 133 490ft 18kts
11-Apr-20 10:16 35.428196 -119.044957 199 491ft 0kts

Navigation Log

Ident Type
Flight plan parsing failed, navigation log unavailable